St George Municipal Airport St George US
ICAO: KSGU
IATA: SGU
Category: Medium
Scheduled Services: No

Elevation: 2941 ft
TransAlt. 18000 ft.

Airport Communications:
AWOS 3:135.075
LOS ANGELES CLNC DEL:133.3
LOS ANGELES CNTR:124.2
CEDAR CITY RDO:122.5
CTAF/UNICOM:122.8

KSGU Zoom In..

If you have problems with the map follow the link
https://www.worldairports.se/pages/airport.php?
ICAO=KSGU

Runways:

(A) RW 01 length 9300 ft width 150 ft
---- / hdg 11

(B) RW 19 length 9300 ft width 150 ft
---- / hdg 191

Location; KSGU
Day. 11 / Time. 14.56 Zulu
* Altimeter: 30.27
* Temperature: 6/° c. 42.8°f.
* Wind from: 000° Speed 00 kn.
Dewpoint: //° c.
Visibility: 10 Statute Miles.
Clouds: Clear (automated report).

KSGU 111456Z AUTO 00000KT 10SM CLR 01/00 A3027 RMK AO2 SLP260 6//// T00110000 53007 FZRANO PNO $


Wind - Calm.

 
 
jpsmedia worldairports.se 2019   terms of use